createdAt,value
2023-04-17T00:01:22.184Z,21.53
2023-04-17T00:03:52.594Z,20.57
2023-04-17T00:06:21.194Z,23.57
2023-04-17T00:08:49.398Z,23.87
2023-04-17T00:11:18.876Z,20.97
2023-04-17T00:13:47.287Z,21.97
2023-04-17T00:16:15.574Z,23.47
2023-04-17T00:18:45.247Z,23.57
2023-04-17T00:21:13.473Z,24.03
2023-04-17T00:23:41.716Z,26.17
2023-04-17T00:26:09.920Z,24.97
2023-04-17T00:28:38.062Z,24.80
2023-04-17T00:31:06.425Z,23.30
2023-04-17T00:33:34.641Z,22.77
2023-04-17T00:36:04.207Z,22.40
2023-04-17T00:38:32.449Z,21.80
2023-04-17T00:41:00.821Z,23.77
2023-04-17T00:43:28.997Z,25.10
2023-04-17T00:45:57.288Z,26.07
2023-04-17T00:48:26.067Z,27.73
2023-04-17T00:50:55.345Z,24.37
2023-04-17T00:53:25.093Z,27.80
2023-04-17T00:55:53.733Z,23.80
2023-04-17T00:58:22.285Z,22.33
2023-04-17T01:00:50.820Z,26.70
2023-04-17T01:03:19.199Z,22.97
2023-04-17T01:05:51.141Z,24.87
2023-04-17T01:08:19.894Z,24.37
2023-04-17T01:10:49.511Z,24.20
2023-04-17T01:13:17.719Z,27.63
2023-04-17T01:15:47.082Z,23.87
2023-04-17T01:18:16.608Z,23.30
2023-04-17T01:20:44.769Z,22.70
2023-04-17T01:23:13.093Z,22.73
2023-04-17T01:25:42.756Z,25.30
2023-04-17T01:28:10.951Z,26.30
2023-04-17T01:30:39.187Z,26.13
2023-04-17T01:33:07.444Z,25.70
2023-04-17T01:35:35.676Z,24.53
2023-04-17T01:38:03.908Z,28.17
2023-04-17T01:40:32.111Z,26.53
2023-04-17T01:43:01.868Z,23.73
2023-04-17T01:45:30.057Z,25.97
2023-04-17T01:47:58.450Z,22.77
2023-04-17T01:50:27.649Z,24.07
2023-04-17T01:52:55.853Z,23.43
2023-04-17T01:55:24.146Z,25.33
2023-04-17T01:57:53.388Z,24.80
2023-04-17T02:00:23.734Z,28.27
2023-04-17T02:02:52.040Z,23.60
2023-04-17T02:05:20.910Z,24.67
2023-04-17T02:07:51.530Z,25.13
2023-04-17T02:10:19.796Z,24.73
2023-04-17T02:12:48.018Z,23.33
2023-04-17T02:15:16.266Z,24.07
2023-04-17T02:17:45.957Z,24.13
2023-04-17T02:20:14.473Z,24.57
2023-04-17T02:22:42.641Z,24.03
2023-04-17T02:25:10.993Z,26.77
2023-04-17T02:27:39.155Z,24.67
2023-04-17T02:30:08.874Z,28.70
2023-04-17T02:32:37.117Z,25.43
2023-04-17T02:35:07.840Z,25.77
2023-04-17T02:37:36.232Z,23.13
2023-04-17T02:40:06.893Z,23.70
2023-04-17T02:42:35.040Z,24.10
2023-04-17T02:45:04.172Z,25.37
2023-04-17T02:47:32.350Z,23.50
2023-04-17T02:50:00.615Z,25.30
2023-04-17T02:52:31.083Z,25.10
2023-04-17T02:54:59.595Z,26.83
2023-04-17T02:57:27.859Z,25.33
2023-04-17T02:59:56.047Z,27.77
2023-04-17T03:02:24.459Z,26.87
2023-04-17T03:04:53.350Z,24.07
2023-04-17T03:07:23.639Z,26.93
2023-04-17T03:09:54.080Z,24.83
2023-04-17T03:12:22.217Z,25.30
2023-04-17T03:14:50.431Z,26.63
2023-04-17T03:17:20.411Z,25.57
2023-04-17T03:19:48.692Z,25.73
2023-04-17T03:22:16.860Z,28.87
2023-04-17T03:24:45.081Z,25.47
2023-04-17T03:27:14.692Z,27.33
2023-04-17T03:29:42.890Z,25.43
2023-04-17T03:32:11.109Z,24.67
2023-04-17T03:34:39.349Z,22.97
2023-04-17T03:37:07.491Z,28.83
2023-04-17T03:39:35.698Z,25.87
2023-04-17T03:42:03.924Z,26.10
2023-04-17T03:44:33.463Z,30.13
2023-04-17T03:47:01.640Z,31.03
2023-04-17T03:49:29.800Z,23.47
2023-04-17T03:51:58.512Z,28.50
2023-04-17T03:54:27.421Z,28.87
2023-04-17T03:56:55.810Z,27.03
2023-04-17T03:59:23.996Z,25.53
2023-04-17T04:01:54.197Z,23.53
2023-04-17T04:04:22.841Z,27.43
2023-04-17T04:06:52.879Z,27.63
2023-04-17T04:09:21.361Z,26.70
2023-04-17T04:11:49.668Z,28.67
2023-04-17T04:14:18.223Z,30.03
2023-04-17T04:16:46.586Z,28.93
2023-04-17T04:19:16.376Z,30.33
2023-04-17T04:21:45.290Z,31.47
2023-04-17T04:24:14.530Z,28.13
2023-04-17T04:26:43.279Z,28.50
2023-04-17T04:29:12.163Z,33.40
2023-04-17T04:31:41.238Z,31.40
2023-04-17T04:34:10.394Z,31.20
2023-04-17T04:36:42.017Z,31.30
2023-04-17T04:39:10.853Z,30.53
2023-04-17T04:41:39.225Z,31.50
2023-04-17T04:44:07.525Z,34.63
2023-04-17T04:46:35.746Z,33.40
2023-04-17T04:49:03.907Z,32.67
2023-04-17T04:51:33.831Z,33.30
2023-04-17T04:54:03.619Z,32.07
2023-04-17T04:56:33.018Z,35.97
2023-04-17T04:59:01.375Z,34.97
2023-04-17T05:01:29.834Z,38.37
2023-04-17T05:03:58.359Z,32.60
2023-04-17T05:06:27.852Z,32.83
2023-04-17T05:08:56.024Z,38.27
2023-04-17T05:11:25.671Z,34.60
2023-04-17T05:13:53.825Z,34.97
2023-04-17T05:16:22.366Z,35.37
2023-04-17T05:18:50.597Z,39.03
2023-04-17T05:21:18.824Z,36.77
2023-04-17T05:23:47.007Z,34.47
2023-04-17T05:26:15.331Z,41.13
2023-04-17T05:28:45.822Z,34.73
2023-04-17T05:31:14.388Z,31.30
2023-04-17T05:33:42.666Z,36.33
2023-04-17T05:36:11.295Z,33.00
2023-04-17T05:38:39.447Z,37.87
2023-04-17T05:41:08.499Z,33.03
2023-04-17T05:43:36.747Z,29.47
2023-04-17T05:46:06.551Z,31.43
2023-04-17T05:48:34.779Z,33.27
2023-04-17T05:51:03.008Z,34.83
2023-04-17T05:53:31.802Z,31.20
2023-04-17T05:56:00.193Z,34.07
2023-04-17T05:58:28.354Z,38.53
2023-04-17T06:00:57.023Z,35.97
2023-04-17T06:03:27.210Z,33.60
2023-04-17T06:05:55.726Z,33.47
2023-04-17T06:08:23.918Z,37.10
2023-04-17T06:10:52.407Z,38.83
2023-04-17T06:13:20.576Z,34.43
2023-04-17T06:15:48.752Z,35.33
2023-04-17T06:18:17.638Z,37.43
2023-04-17T06:20:47.690Z,35.17
2023-04-17T06:23:15.922Z,38.13
2023-04-17T06:25:44.130Z,33.87
2023-04-17T06:28:12.252Z,40.20
2023-04-17T06:30:40.545Z,39.40
2023-04-17T06:33:08.790Z,41.70
2023-04-17T06:35:40.893Z,37.83
2023-04-17T06:38:10.560Z,37.10
2023-04-17T06:40:38.759Z,36.40
2023-04-17T06:43:06.957Z,34.87
2023-04-17T06:45:35.245Z,32.87
2023-04-17T06:48:03.514Z,30.57
2023-04-17T06:50:31.859Z,33.97
2023-04-17T06:53:00.101Z,31.00
2023-04-17T06:55:29.737Z,35.17
2023-04-17T06:57:58.065Z,35.57
2023-04-17T07:00:26.429Z,35.67
2023-04-17T07:02:54.811Z,32.83
2023-04-17T07:05:23.200Z,31.37
2023-04-17T07:07:51.423Z,31.07
2023-04-17T07:10:20.410Z,32.77
2023-04-17T07:12:50.173Z,31.57
2023-04-17T07:15:18.646Z,30.52
2023-04-17T07:17:47.177Z,32.63
2023-04-17T07:20:15.726Z,31.90
2023-04-17T07:22:44.152Z,34.72
2023-04-17T07:25:12.500Z,28.55
2023-04-17T07:27:40.812Z,31.00
2023-04-17T07:30:11.539Z,31.08
2023-04-17T07:32:39.783Z,39.43
2023-04-17T07:35:09.344Z,34.50
2023-04-17T07:37:37.722Z,26.73
2023-04-17T07:40:10.342Z,27.60
2023-04-17T07:42:38.822Z,25.90
2023-04-17T07:45:08.254Z,28.77
2023-04-17T07:47:38.187Z,28.63
2023-04-17T07:50:07.377Z,25.38
2023-04-17T07:52:35.654Z,27.50
2023-04-17T07:55:03.929Z,25.63
2023-04-17T07:57:33.016Z,25.10
2023-04-17T08:00:02.018Z,28.83
2023-04-17T08:02:30.591Z,27.17
2023-04-17T08:05:01.884Z,25.67
2023-04-17T08:07:30.233Z,30.55
2023-04-17T08:09:58.520Z,26.95
2023-04-17T08:12:26.850Z,30.02
2023-04-17T08:14:55.025Z,29.67
2023-04-17T08:17:26.193Z,24.67
2023-04-17T08:19:54.656Z,25.33
2023-04-17T08:22:24.514Z,24.90
2023-04-17T08:24:54.943Z,26.27
2023-04-17T08:27:23.153Z,26.08
2023-04-17T08:29:51.696Z,22.75
2023-04-17T08:32:19.891Z,25.92
2023-04-17T08:34:48.236Z,21.17
2023-04-17T08:37:16.391Z,23.55
2023-04-17T08:39:46.100Z,22.27
2023-04-17T08:42:18.575Z,22.33
2023-04-17T08:44:47.561Z,22.67
2023-04-17T08:47:20.132Z,23.70
2023-04-17T08:49:50.521Z,27.35
2023-04-17T08:52:19.173Z,24.73
2023-04-17T08:54:50.995Z,24.45
2023-04-17T08:57:19.595Z,21.00
2023-04-17T08:59:47.998Z,20.10
2023-04-17T09:02:16.452Z,21.90
2023-04-17T09:04:47.265Z,20.17
2023-04-17T09:07:16.718Z,20.40
2023-04-17T09:09:51.113Z,20.25
2023-04-17T09:12:19.864Z,21.58
2023-04-17T09:14:48.155Z,19.88
2023-04-17T09:17:18.355Z,21.25
2023-04-17T09:20:09.357Z,20.45
2023-04-17T09:22:39.302Z,20.58
2023-04-17T09:25:17.630Z,18.90
2023-04-17T09:27:46.142Z,23.15
2023-04-17T09:30:14.895Z,20.85
2023-04-17T09:32:43.268Z,21.23
2023-04-17T09:35:11.806Z,24.63
2023-04-17T09:37:50.673Z,22.73
2023-04-17T09:40:21.589Z,21.48
2023-04-17T09:43:00.550Z,22.85
2023-04-17T09:45:33.404Z,22.95
2023-04-17T09:48:05.477Z,21.67
2023-04-17T09:50:35.855Z,26.40
2023-04-17T09:53:07.120Z,21.50
2023-04-17T09:55:38.055Z,18.83
2023-04-17T09:58:08.568Z,17.08
2023-04-17T10:00:38.258Z,19.50
2023-04-17T10:03:08.374Z,19.40
2023-04-17T10:05:36.974Z,18.80
2023-04-17T10:08:06.047Z,25.42
2023-04-17T10:10:36.628Z,18.55
2023-04-17T10:13:08.862Z,19.73
2023-04-17T10:15:37.794Z,18.67
2023-04-17T10:18:21.212Z,18.23
2023-04-17T10:20:50.907Z,20.13
2023-04-17T10:23:33.531Z,19.77
2023-04-17T10:26:38.357Z,18.92
2023-04-17T10:29:08.831Z,22.55
2023-04-17T10:32:24.457Z,19.73
2023-04-17T10:34:54.276Z,18.88
2023-04-17T10:37:25.485Z,17.17
2023-04-17T10:40:02.493Z,20.90
2023-04-17T10:42:32.968Z,17.85
2023-04-17T10:45:05.491Z,23.48
2023-04-17T10:47:35.039Z,17.05
2023-04-17T10:50:05.326Z,18.08
2023-04-17T10:52:43.530Z,18.35
2023-04-17T10:55:16.299Z,19.88
2023-04-17T10:57:59.298Z,20.20
2023-04-17T11:00:38.512Z,19.88
2023-04-17T11:03:08.077Z,21.98
2023-04-17T11:05:36.781Z,16.40
2023-04-17T11:08:04.991Z,19.20
2023-04-17T11:10:37.276Z,18.75
2023-04-17T11:13:05.716Z,18.95
2023-04-17T11:15:36.445Z,18.25
2023-04-17T11:18:05.341Z,19.55
2023-04-17T11:20:34.739Z,18.27
2023-04-17T11:23:03.679Z,16.48
2023-04-17T11:25:34.107Z,18.40
2023-04-17T11:28:04.396Z,19.63
2023-04-17T11:30:34.635Z,18.23
2023-04-17T11:33:05.535Z,17.88
2023-04-17T11:35:35.053Z,21.58
2023-04-17T11:38:20.921Z,19.75
2023-04-17T11:40:52.453Z,28.95
2023-04-17T11:43:21.603Z,18.98
2023-04-17T11:45:52.242Z,15.48
2023-04-17T11:48:24.671Z,17.85
2023-04-17T11:50:56.967Z,14.57
2023-04-17T11:53:25.832Z,14.48
2023-04-17T11:56:12.228Z,14.00
2023-04-17T11:58:48.120Z,15.45
2023-04-17T12:01:16.355Z,15.25
2023-04-17T12:03:47.806Z,18.95
2023-04-17T12:06:17.343Z,14.70
2023-04-17T12:08:50.150Z,15.93
2023-04-17T12:11:25.119Z,15.35
2023-04-17T12:13:53.992Z,15.80
2023-04-17T12:16:24.661Z,19.15
2023-04-17T12:18:54.891Z,14.77
2023-04-17T12:21:23.991Z,14.30
2023-04-17T12:23:52.720Z,14.32
2023-04-17T12:26:20.927Z,14.55
2023-04-17T12:28:49.123Z,15.10
2023-04-17T12:31:17.356Z,18.60
2023-04-17T12:33:45.749Z,12.88
2023-04-17T12:36:15.474Z,14.05
2023-04-17T12:38:44.088Z,11.95
2023-04-17T12:41:12.290Z,11.10
2023-04-17T12:43:40.556Z,13.90
2023-04-17T12:46:11.022Z,11.57
2023-04-17T12:48:39.330Z,11.10
2023-04-17T12:51:07.626Z,14.10
2023-04-17T12:53:37.377Z,11.80
2023-04-17T12:56:06.109Z,12.18
2023-04-17T12:58:34.311Z,12.07
2023-04-17T13:01:02.523Z,16.67
2023-04-17T13:03:30.856Z,16.08
2023-04-17T13:05:59.355Z,14.68
2023-04-17T13:08:27.615Z,14.02
2023-04-17T13:10:57.558Z,13.45
2023-04-17T13:13:26.200Z,11.98
2023-04-17T13:15:54.437Z,12.73
2023-04-17T13:18:22.641Z,11.75
2023-04-17T13:20:50.999Z,12.70
2023-04-17T13:23:20.634Z,10.85
2023-04-17T13:25:49.396Z,12.68
2023-04-17T13:28:19.032Z,12.52
2023-04-17T13:30:47.299Z,15.82
2023-04-17T13:33:15.666Z,11.48
2023-04-17T13:35:44.009Z,11.50
2023-04-17T13:38:12.255Z,14.82
2023-04-17T13:40:41.075Z,13.55
2023-04-17T13:43:09.890Z,13.18
2023-04-17T13:45:39.564Z,13.07
2023-04-17T13:48:08.089Z,10.02
2023-04-17T13:50:36.386Z,14.10
2023-04-17T13:53:04.746Z,13.13
2023-04-17T13:55:33.229Z,10.45
2023-04-17T13:58:02.176Z,14.65
2023-04-17T14:00:30.504Z,11.27
2023-04-17T14:03:00.813Z,12.07
2023-04-17T14:05:29.295Z,12.20
2023-04-17T14:07:57.947Z,16.35
2023-04-17T14:10:26.343Z,18.30
2023-04-17T14:12:54.749Z,11.52
2023-04-17T14:15:23.006Z,16.15
2023-04-17T14:17:51.333Z,16.98
2023-04-17T14:20:21.219Z,22.73
2023-04-17T14:22:49.573Z,17.92
2023-04-17T14:25:18.732Z,16.35
2023-04-17T14:27:46.978Z,20.10
2023-04-17T14:30:15.701Z,23.58
2023-04-17T14:32:43.977Z,21.10
2023-04-17T14:35:13.260Z,18.13
2023-04-17T14:37:43.157Z,16.20
2023-04-17T14:40:12.468Z,15.73
2023-04-17T14:42:53.681Z,14.75
2023-04-17T14:45:23.096Z,14.88
2023-04-17T14:47:51.538Z,15.15
2023-04-17T14:50:20.065Z,13.45
2023-04-17T14:52:49.810Z,18.08
2023-04-17T14:55:18.182Z,17.80
2023-04-17T14:57:46.435Z,16.40
2023-04-17T15:00:15.965Z,12.82
2023-04-17T15:02:44.298Z,15.15
2023-04-17T15:05:12.725Z,16.38
2023-04-17T15:07:40.953Z,13.48
2023-04-17T15:10:11.744Z,17.90
2023-04-17T15:12:40.282Z,17.02
2023-04-17T15:15:10.005Z,17.15
2023-04-17T15:17:38.323Z,9.23
2023-04-17T15:20:07.864Z,10.27
2023-04-17T15:22:36.077Z,9.80
2023-04-17T15:25:04.675Z,9.75
2023-04-17T15:27:34.282Z,12.85
2023-04-17T15:30:04.930Z,16.70
2023-04-17T15:32:33.086Z,15.38
2023-04-17T15:35:01.261Z,14.40
2023-04-17T15:37:29.550Z,14.85
2023-04-17T15:39:57.775Z,10.57
2023-04-17T15:42:27.186Z,11.77
2023-04-17T15:44:57.591Z,9.45
2023-04-17T15:47:25.768Z,12.48
2023-04-17T15:49:54.008Z,11.00
2023-04-17T15:52:22.180Z,12.68
2023-04-17T15:54:50.319Z,11.75
2023-04-17T15:57:18.852Z,10.18
2023-04-17T15:59:47.089Z,12.43
2023-04-17T16:02:16.802Z,11.18
2023-04-17T16:04:45.222Z,10.90
2023-04-17T16:07:14.245Z,10.98
2023-04-17T16:09:46.655Z,14.73
2023-04-17T16:12:15.002Z,10.98
2023-04-17T16:14:43.271Z,15.18
2023-04-17T16:17:11.426Z,10.82
2023-04-17T16:19:41.004Z,13.52
2023-04-17T16:22:09.171Z,11.23
2023-04-17T16:24:37.315Z,11.65
2023-04-17T16:27:07.293Z,12.90
2023-04-17T16:29:35.472Z,14.38
2023-04-17T16:32:03.691Z,13.40
2023-04-17T16:34:31.888Z,11.73
2023-04-17T16:37:03.368Z,13.95
2023-04-17T16:39:31.531Z,12.27
2023-04-17T16:41:59.696Z,13.35
2023-04-17T16:44:29.198Z,10.35
2023-04-17T16:49:28.792Z,14.05
2023-04-17T16:51:56.968Z,11.77
2023-04-17T16:54:26.534Z,12.18
2023-04-17T16:56:54.707Z,11.93
2023-04-17T16:59:24.059Z,18.42
2023-04-17T17:01:52.747Z,13.43
2023-04-17T17:04:21.002Z,11.00
2023-04-17T17:06:49.214Z,16.73
2023-04-17T17:09:17.409Z,15.93
2023-04-17T17:11:47.875Z,17.08
2023-04-17T17:14:16.333Z,12.15
2023-04-17T17:16:44.553Z,11.90
2023-04-17T17:19:13.057Z,11.07
2023-04-17T17:21:41.473Z,13.15
2023-04-17T17:24:09.773Z,12.80
2023-04-17T17:26:37.923Z,13.73
2023-04-17T17:29:07.538Z,13.27
2023-04-17T17:31:35.750Z,9.95
2023-04-17T17:34:16.654Z,11.52
2023-04-17T17:36:52.067Z,13.10
2023-04-17T17:39:21.828Z,11.70
2023-04-17T17:41:51.175Z,10.10
2023-04-17T17:44:20.731Z,16.80
2023-04-17T17:46:48.893Z,12.73
2023-04-17T17:49:17.428Z,16.67
2023-04-17T17:51:45.619Z,13.15
2023-04-17T17:54:14.066Z,12.73
2023-04-17T17:56:42.455Z,15.88
2023-04-17T17:59:10.614Z,17.13
2023-04-17T18:01:40.325Z,14.50
2023-04-17T18:04:09.020Z,15.93
2023-04-17T18:06:37.322Z,15.35
2023-04-17T18:09:05.582Z,16.95
2023-04-17T18:11:33.768Z,17.08
2023-04-17T18:14:01.947Z,15.00
2023-04-17T18:16:31.604Z,18.02
2023-04-17T18:19:03.568Z,16.48
2023-04-17T18:21:31.983Z,17.88
2023-04-17T18:24:00.243Z,14.68
2023-04-17T18:26:28.617Z,14.60
2023-04-17T18:28:56.836Z,14.05
2023-04-17T18:31:26.072Z,14.25
2023-04-17T18:33:54.315Z,14.35
2023-04-17T18:36:24.119Z,16.63
2023-04-17T18:38:52.387Z,14.23
2023-04-17T18:41:21.452Z,14.60
2023-04-17T18:43:49.908Z,16.00
2023-04-17T18:46:18.264Z,16.08
2023-04-17T18:48:46.554Z,15.68
2023-04-17T18:51:15.717Z,17.85
2023-04-17T18:53:45.333Z,14.93
2023-04-17T18:56:15.003Z,20.50
2023-04-17T18:58:43.606Z,15.20
2023-04-17T19:01:11.944Z,16.40
2023-04-17T19:03:40.600Z,15.40
2023-04-17T19:06:08.772Z,17.38
2023-04-17T19:08:39.471Z,18.20
2023-04-17T19:11:09.353Z,18.30
2023-04-17T19:13:37.498Z,17.00
2023-04-17T19:16:05.787Z,15.37
2023-04-17T19:18:34.013Z,19.30
2023-04-17T19:21:02.373Z,16.63
2023-04-17T19:23:30.687Z,14.97
2023-04-17T19:25:58.868Z,17.05
2023-04-17T19:28:28.668Z,17.20
2023-04-17T19:30:57.901Z,17.38
2023-04-17T19:33:26.116Z,14.65
2023-04-17T19:35:54.278Z,18.17
2023-04-17T19:38:22.511Z,16.90
2023-04-17T19:41:14.520Z,16.90
2023-04-17T19:43:44.305Z,16.48
2023-04-17T19:46:13.395Z,18.77
2023-04-17T19:48:43.589Z,20.50
2023-04-17T19:51:12.728Z,17.85
2023-04-17T19:53:42.515Z,19.40
2023-04-17T19:56:11.308Z,18.20
2023-04-17T19:58:39.861Z,17.57
2023-04-17T20:01:09.518Z,17.87
2023-04-17T20:03:39.464Z,17.20
2023-04-17T20:06:08.333Z,17.33
2023-04-17T20:08:36.676Z,17.17
2023-04-17T20:11:06.405Z,16.80
2023-04-17T20:13:34.678Z,15.40
2023-04-17T20:16:02.828Z,20.30
2023-04-17T20:18:33.898Z,17.27
2023-04-17T20:21:02.333Z,21.77
2023-04-17T20:23:30.729Z,25.67
2023-04-17T20:25:59.226Z,17.93
2023-04-17T20:28:28.882Z,18.53
2023-04-17T20:30:57.281Z,19.00
2023-04-17T20:33:25.554Z,19.47
2023-04-17T20:35:55.131Z,19.23
2023-04-17T20:38:23.310Z,20.57
2023-04-17T20:40:51.496Z,20.87
2023-04-17T20:43:19.691Z,17.70
2023-04-17T20:45:48.434Z,26.00
2023-04-17T20:48:16.811Z,22.57
2023-04-17T20:50:45.082Z,20.17
2023-04-17T20:53:15.858Z,19.90
2023-04-17T20:55:44.051Z,21.20
2023-04-17T20:58:12.226Z,23.08
2023-04-17T21:00:53.957Z,22.53
2023-04-17T21:03:27.680Z,19.43
2023-04-17T21:05:55.925Z,20.13
2023-04-17T21:08:26.224Z,23.53
2023-04-17T21:10:54.407Z,23.30
2023-04-17T21:13:23.405Z,19.83
2023-04-17T21:15:51.616Z,19.70
2023-04-17T21:18:19.865Z,23.40
2023-04-17T21:20:48.021Z,20.95
2023-04-17T21:23:16.177Z,23.20
2023-04-17T21:25:45.707Z,25.40
2023-04-17T21:28:13.914Z,25.47
2023-04-17T21:30:42.079Z,25.27
2023-04-17T21:33:10.322Z,22.23
2023-04-17T21:35:39.472Z,28.93
2023-04-17T21:38:07.700Z,25.40
2023-04-17T21:40:37.121Z,25.60
2023-04-17T21:43:06.871Z,25.67
2023-04-17T21:45:35.081Z,25.10
2023-04-17T21:48:03.411Z,23.43
2023-04-17T21:50:31.882Z,27.37
2023-04-17T21:53:00.112Z,25.73
2023-04-17T21:55:28.514Z,24.10
2023-04-17T21:57:56.680Z,24.43
2023-04-17T22:00:26.400Z,23.33
2023-04-17T22:02:54.728Z,25.37
2023-04-17T22:05:22.978Z,27.40
2023-04-17T22:07:54.837Z,28.73
2023-04-17T22:10:24.405Z,25.20
2023-04-17T22:12:52.832Z,25.10
2023-04-17T22:15:21.020Z,26.30
2023-04-17T22:17:50.738Z,24.83
2023-04-17T22:20:19.067Z,28.27
2023-04-17T22:22:47.937Z,27.73
2023-04-17T22:25:16.108Z,28.53
2023-04-17T22:27:44.268Z,28.70
2023-04-17T22:30:12.895Z,30.43
2023-04-17T22:32:41.302Z,28.43
2023-04-17T22:35:11.280Z,30.57
2023-04-17T22:37:39.436Z,25.77
2023-04-17T22:40:09.027Z,30.77
2023-04-17T22:42:37.212Z,28.33
2023-04-17T22:45:06.233Z,28.90
2023-04-17T22:47:34.569Z,28.07
2023-04-17T22:50:04.101Z,27.07
2023-04-17T22:52:33.636Z,32.70
2023-04-17T22:55:01.837Z,28.93
2023-04-17T22:57:29.986Z,26.73
2023-04-17T22:59:58.138Z,28.67
2023-04-17T23:02:26.432Z,27.30
2023-04-17T23:04:54.723Z,24.67
2023-04-17T23:07:22.959Z,28.40
2023-04-17T23:09:52.565Z,31.43
2023-04-17T23:12:21.734Z,32.07
2023-04-17T23:14:49.983Z,30.20
2023-04-17T23:17:18.227Z,30.20
2023-04-17T23:19:46.713Z,28.90
2023-04-17T23:22:14.967Z,33.73
2023-04-17T23:24:43.162Z,29.57
2023-04-17T23:27:12.722Z,30.40
2023-04-17T23:29:40.900Z,30.63
2023-04-17T23:32:09.087Z,29.33
2023-04-17T23:34:37.644Z,31.87
2023-04-17T23:37:06.010Z,36.47
2023-04-17T23:39:34.195Z,34.40
2023-04-17T23:42:06.977Z,32.00
2023-04-17T23:44:36.683Z,26.57
2023-04-17T23:47:05.361Z,31.13
2023-04-17T23:49:34.186Z,30.47
2023-04-17T23:52:02.534Z,33.33
2023-04-17T23:54:30.726Z,33.83
2023-04-17T23:56:59.181Z,33.13
2023-04-17T23:59:27.336Z,36.10
